This is the latest recevied weather packets stored in our database for station/object KG5MMT-12. If no packets are shown the sender has not sent any weather packets the latest 10 day(s).
| Time | Temp. | Humidity | Pressure | Rain* | Wind** | Luminosity | Snow |
|---|---|---|---|---|---|---|---|
| 1788217150 | 17.78° C | 70% | 0 hPa | 1.27 mm | - | - | - |
| 1788216850 | 17.78° C | 68% | 0 hPa | 2.29 mm | - | - | - |
| 1788216550 | 17.78° C | 69% | 0 hPa | 2.54 mm | - | - | - |
| 1788216250 | 17.22° C | 68% | 0 hPa | 2.54 mm | - | - | - |
| 1788215950 | 17.22° C | 76% | 0 hPa | 2.54 mm | - | - | - |
| 1788215650 | 16.67° C | 76% | 0 hPa | 2.54 mm | - | - | - |
| 1788215350 | 17.22° C | 79% | 0 hPa | 2.54 mm | - | - | - |
| 1788215067 | 17.22° C | 76% | 0 hPa | 2.54 mm | - | - | - |
| 1788214750 | 17.22° C | 80% | 0 hPa | 2.54 mm | - | - | - |
| 1788214450 | 17.22° C | 76% | 0 hPa | 2.54 mm | - | - | - |
| 1788214159 | 18.89° C | 74% | 0 hPa | 2.54 mm | - | - | - |
| 1788213850 | 20° C | 66% | 0 hPa | 1.78 mm | - | - | - |
| 1788213550 | 21.11° C | 63% | 0 hPa | 1.27 mm | - | - | - |
| 1788213250 | 22.78° C | 51% | 0 hPa | 0.25 mm | - | - | - |
| 1788212950 | 23.33° C | 45% | 0 hPa | 0 mm | - | - | - |
| 1788212650 | 23.33° C | 44% | 0 hPa | 0 mm | - | - | - |
| 1788212350 | 23.33° C | 44% | 0 hPa | 0 mm | - | - | - |
| 1788212050 | 23.33° C | 44% | 0 hPa | 0 mm | - | - | - |
| 1788211750 | 23.33° C | 43% | 0 hPa | 0 mm | - | - | - |
| 1788211450 | 23.33° C | 43% | 0 hPa | 0 mm | - | - | - |
| 1788211150 | 23.33° C | 44% | 0 hPa | 0 mm | - | - | - |
| 1788210852 | 23.33° C | 45% | 0 hPa | 0 mm | - | - | - |
| 1788210550 | 23.33° C | 44% | 0 hPa | 0 mm | - | - | - |
| 1788210250 | 23.89° C | 42% | 0 hPa | 0 mm | - | - | - |
| 1788209950 | 25° C | 41% | 0 hPa | 0 mm | - | - | - |
* Rain latest hour (hover to see other rain measurements)
** Current wind speed in m/s (hover to see current wind gust speed)